Terminal Aerodrome Forecast
Issued by NWS

Home | Current Version | Previous Version | Graphics & Text | Print | Product List | Glossary On
Versions: 1 2 3 4 5 6 7 8 9 10 11 12 13 14
000
FTUS43 KIWX 010539
TAFSBN
TAF
KSBN 010539Z 0106/0206 00000KT 6SM BR SKC
     FM010730 20002KT 3SM BR FEW020
      TEMPO 0110/0112 1SM BR SCT020
     FM011400 21008KT P6SM SCT035
     FM020100 22004KT P6SM FEW050 SCT100=

USA.gov is the U.S. government's official web portal to all federal, state and local government web resources and services.